sensor_id;sensor_type;location;lat;lon;timestamp;P1;durP1;ratioP1;P2;durP2;ratioP2
67941;SDS011;54731;42.600;23.476;2023-11-22T00:01:38;8.70;;;3.90;;
67941;SDS011;54731;42.600;23.476;2023-11-22T00:04:03;7.57;;;3.97;;
67941;SDS011;54731;42.600;23.476;2023-11-22T00:06:28;7.57;;;3.50;;
67941;SDS011;54731;42.600;23.476;2023-11-22T00:08:54;8.20;;;3.83;;
67941;SDS011;54731;42.600;23.476;2023-11-22T00:11:19;10.18;;;5.07;;
67941;SDS011;54731;42.600;23.476;2023-11-22T00:13:44;8.63;;;3.93;;
67941;SDS011;54731;42.600;23.476;2023-11-22T00:16:10;8.37;;;4.03;;
67941;SDS011;54731;42.600;23.476;2023-11-22T00:18:35;12.57;;;4.93;;
67941;SDS011;54731;42.600;23.476;2023-11-22T00:21:00;9.23;;;4.27;;
67941;SDS011;54731;42.600;23.476;2023-11-22T00:23:25;11.97;;;4.20;;
67941;SDS011;54731;42.600;23.476;2023-11-22T00:25:51;9.60;;;4.93;;
67941;SDS011;54731;42.600;23.476;2023-11-22T00:28:16;12.63;;;5.70;;
67941;SDS011;54731;42.600;23.476;2023-11-22T00:30:41;11.57;;;4.30;;
67941;SDS011;54731;42.600;23.476;2023-11-22T00:33:07;9.98;;;3.92;;
67941;SDS011;54731;42.600;23.476;2023-11-22T00:35:32;9.60;;;4.20;;
67941;SDS011;54731;42.600;23.476;2023-11-22T00:37:57;10.73;;;4.93;;
67941;SDS011;54731;42.600;23.476;2023-11-22T00:40:22;8.37;;;4.53;;
67941;SDS011;54731;42.600;23.476;2023-11-22T00:42:48;8.40;;;4.90;;
67941;SDS011;54731;42.600;23.476;2023-11-22T00:45:13;12.77;;;5.77;;
67941;SDS011;54731;42.600;23.476;2023-11-22T00:47:38;11.13;;;5.37;;
67941;SDS011;54731;42.600;23.476;2023-11-22T00:50:04;18.50;;;6.37;;
67941;SDS011;54731;42.600;23.476;2023-11-22T00:52:33;12.90;;;5.75;;
67941;SDS011;54731;42.600;23.476;2023-11-22T00:54:58;12.57;;;6.45;;
67941;SDS011;54731;42.600;23.476;2023-11-22T00:57:23;10.13;;;4.63;;
67941;SDS011;54731;42.600;23.476;2023-11-22T00:59:49;17.40;;;7.40;;
67941;SDS011;54731;42.600;23.476;2023-11-22T01:02:14;10.37;;;5.43;;
67941;SDS011;54731;42.600;23.476;2023-11-22T01:04:39;8.10;;;4.30;;
67941;SDS011;54731;42.600;23.476;2023-11-22T01:07:04;9.00;;;4.87;;
67941;SDS011;54731;42.600;23.476;2023-11-22T01:09:31;10.60;;;4.87;;
67941;SDS011;54731;42.600;23.476;2023-11-22T01:11:56;9.75;;;5.22;;
67941;SDS011;54731;42.600;23.476;2023-11-22T01:14:21;8.63;;;4.03;;
67941;SDS011;54731;42.600;23.476;2023-11-22T01:16:47;7.80;;;4.50;;
67941;SDS011;54731;42.600;23.476;2023-11-22T01:19:12;9.83;;;4.83;;
67941;SDS011;54731;42.600;23.476;2023-11-22T01:21:37;12.60;;;5.50;;
67941;SDS011;54731;42.600;23.476;2023-11-22T01:24:03;13.75;;;4.70;;
67941;SDS011;54731;42.600;23.476;2023-11-22T01:26:28;7.43;;;4.10;;
67941;SDS011;54731;42.600;23.476;2023-11-22T01:28:54;9.73;;;4.20;;
67941;SDS011;54731;42.600;23.476;2023-11-22T01:31:19;12.10;;;6.07;;
67941;SDS011;54731;42.600;23.476;2023-11-22T01:33:44;9.03;;;4.73;;
67941;SDS011;54731;42.600;23.476;2023-11-22T01:36:11;11.05;;;5.03;;
67941;SDS011;54731;42.600;23.476;2023-11-22T01:38:36;11.93;;;5.80;;
67941;SDS011;54731;42.600;23.476;2023-11-22T01:41:01;12.27;;;5.57;;
67941;SDS011;54731;42.600;23.476;2023-11-22T01:43:27;13.53;;;5.00;;
67941;SDS011;54731;42.600;23.476;2023-11-22T01:45:53;8.40;;;4.87;;
67941;SDS011;54731;42.600;23.476;2023-11-22T01:48:19;9.77;;;5.32;;
67941;SDS011;54731;42.600;23.476;2023-11-22T01:50:45;11.80;;;5.93;;
67941;SDS011;54731;42.600;23.476;2023-11-22T01:53:11;10.60;;;5.53;;
67941;SDS011;54731;42.600;23.476;2023-11-22T01:55:37;13.40;;;5.93;;
67941;SDS011;54731;42.600;23.476;2023-11-22T01:58:04;10.13;;;4.78;;
67941;SDS011;54731;42.600;23.476;2023-11-22T02:00:36;10.80;;;5.63;;
67941;SDS011;54731;42.600;23.476;2023-11-22T02:03:09;11.05;;;5.00;;
67941;SDS011;54731;42.600;23.476;2023-11-22T02:05:34;13.73;;;6.20;;
67941;SDS011;54731;42.600;23.476;2023-11-22T02:07:59;12.30;;;6.70;;
67941;SDS011;54731;42.600;23.476;2023-11-22T02:10:25;11.98;;;6.28;;
67941;SDS011;54731;42.600;23.476;2023-11-22T02:12:50;10.80;;;5.50;;
67941;SDS011;54731;42.600;23.476;2023-11-22T02:15:15;12.50;;;6.00;;
67941;SDS011;54731;42.600;23.476;2023-11-22T02:17:41;8.77;;;5.70;;
67941;SDS011;54731;42.600;23.476;2023-11-22T02:20:06;11.77;;;5.77;;
67941;SDS011;54731;42.600;23.476;2023-11-22T02:22:32;11.48;;;5.97;;
67941;SDS011;54731;42.600;23.476;2023-11-22T02:24:57;8.98;;;5.57;;
67941;SDS011;54731;42.600;23.476;2023-11-22T02:27:22;11.27;;;5.20;;
67941;SDS011;54731;42.600;23.476;2023-11-22T02:29:48;8.73;;;5.77;;
67941;SDS011;54731;42.600;23.476;2023-11-22T02:32:13;8.60;;;5.07;;
67941;SDS011;54731;42.600;23.476;2023-11-22T02:34:38;12.07;;;6.33;;
67941;SDS011;54731;42.600;23.476;2023-11-22T02:37:03;14.33;;;8.40;;
67941;SDS011;54731;42.600;23.476;2023-11-22T02:39:32;14.83;;;7.57;;
67941;SDS011;54731;42.600;23.476;2023-11-22T02:42:07;18.48;;;8.75;;
67941;SDS011;54731;42.600;23.476;2023-11-22T02:44:32;15.27;;;8.00;;
67941;SDS011;54731;42.600;23.476;2023-11-22T02:46:58;16.07;;;8.57;;
67941;SDS011;54731;42.600;23.476;2023-11-22T02:49:23;15.05;;;8.68;;
67941;SDS011;54731;42.600;23.476;2023-11-22T02:51:48;16.15;;;8.20;;
67941;SDS011;54731;42.600;23.476;2023-11-22T02:54:14;14.60;;;8.23;;
67941;SDS011;54731;42.600;23.476;2023-11-22T02:56:39;18.63;;;10.50;;
67941;SDS011;54731;42.600;23.476;2023-11-22T02:59:04;19.60;;;10.60;;
67941;SDS011;54731;42.600;23.476;2023-11-22T03:01:29;20.60;;;10.70;;
67941;SDS011;54731;42.600;23.476;2023-11-22T03:03:55;18.37;;;9.17;;
67941;SDS011;54731;42.600;23.476;2023-11-22T03:06:20;19.20;;;10.10;;
67941;SDS011;54731;42.600;23.476;2023-11-22T03:08:45;19.70;;;9.87;;
67941;SDS011;54731;42.600;23.476;2023-11-22T03:11:11;17.77;;;9.70;;
67941;SDS011;54731;42.600;23.476;2023-11-22T03:13:36;17.67;;;9.83;;
67941;SDS011;54731;42.600;23.476;2023-11-22T03:16:01;17.30;;;9.23;;
67941;SDS011;54731;42.600;23.476;2023-11-22T03:18:26;20.30;;;10.30;;
67941;SDS011;54731;42.600;23.476;2023-11-22T03:20:52;15.53;;;9.00;;
67941;SDS011;54731;42.600;23.476;2023-11-22T03:23:18;20.60;;;12.07;;
67941;SDS011;54731;42.600;23.476;2023-11-22T03:25:44;21.50;;;11.63;;
67941;SDS011;54731;42.600;23.476;2023-11-22T03:28:09;14.50;;;9.07;;
67941;SDS011;54731;42.600;23.476;2023-11-22T03:30:34;15.77;;;8.30;;
67941;SDS011;54731;42.600;23.476;2023-11-22T03:33:00;14.00;;;9.03;;
67941;SDS011;54731;42.600;23.476;2023-11-22T03:35:25;15.90;;;8.77;;
67941;SDS011;54731;42.600;23.476;2023-11-22T03:37:50;18.60;;;8.20;;
67941;SDS011;54731;42.600;23.476;2023-11-22T03:40:15;13.43;;;8.40;;
67941;SDS011;54731;42.600;23.476;2023-11-22T03:42:41;14.37;;;8.30;;
67941;SDS011;54731;42.600;23.476;2023-11-22T03:45:06;11.77;;;8.53;;
67941;SDS011;54731;42.600;23.476;2023-11-22T03:47:32;14.50;;;8.05;;
67941;SDS011;54731;42.600;23.476;2023-11-22T03:49:57;17.43;;;8.83;;
67941;SDS011;54731;42.600;23.476;2023-11-22T03:52:22;15.27;;;8.67;;
67941;SDS011;54731;42.600;23.476;2023-11-22T03:54:48;17.30;;;9.07;;
67941;SDS011;54731;42.600;23.476;2023-11-22T03:57:13;13.50;;;8.43;;
67941;SDS011;54731;42.600;23.476;2023-11-22T03:59:40;15.83;;;8.27;;
67941;SDS011;54731;42.600;23.476;2023-11-22T04:02:05;25.77;;;10.48;;
67941;SDS011;54731;42.600;23.476;2023-11-22T04:04:30;19.33;;;10.83;;
67941;SDS011;54731;42.600;23.476;2023-11-22T04:06:56;17.87;;;10.17;;
67941;SDS011;54731;42.600;23.476;2023-11-22T04:09:21;19.00;;;10.52;;
67941;SDS011;54731;42.600;23.476;2023-11-22T04:11:47;17.17;;;10.30;;
67941;SDS011;54731;42.600;23.476;2023-11-22T04:14:12;16.27;;;9.50;;
67941;SDS011;54731;42.600;23.476;2023-11-22T04:16:37;15.20;;;9.30;;
67941;SDS011;54731;42.600;23.476;2023-11-22T04:19:02;16.57;;;8.97;;
67941;SDS011;54731;42.600;23.476;2023-11-22T04:21:28;14.40;;;8.30;;
67941;SDS011;54731;42.600;23.476;2023-11-22T04:23:53;13.43;;;7.37;;
67941;SDS011;54731;42.600;23.476;2023-11-22T04:26:18;17.23;;;9.27;;
67941;SDS011;54731;42.600;23.476;2023-11-22T04:28:44;17.23;;;10.60;;
67941;SDS011;54731;42.600;23.476;2023-11-22T04:31:09;20.80;;;12.00;;
67941;SDS011;54731;42.600;23.476;2023-11-22T04:33:34;22.45;;;11.88;;
67941;SDS011;54731;42.600;23.476;2023-11-22T04:36:00;22.40;;;11.85;;
67941;SDS011;54731;42.600;23.476;2023-11-22T04:38:25;20.70;;;10.83;;
67941;SDS011;54731;42.600;23.476;2023-11-22T04:40:50;17.23;;;11.43;;
67941;SDS011;54731;42.600;23.476;2023-11-22T04:43:15;25.07;;;13.00;;
67941;SDS011;54731;42.600;23.476;2023-11-22T04:45:41;18.70;;;11.43;;
67941;SDS011;54731;42.600;23.476;2023-11-22T04:48:06;18.73;;;11.83;;
67941;SDS011;54731;42.600;23.476;2023-11-22T04:50:32;21.07;;;11.63;;
67941;SDS011;54731;42.600;23.476;2023-11-22T04:52:57;20.13;;;12.52;;
67941;SDS011;54731;42.600;23.476;2023-11-22T04:55:23;22.00;;;12.30;;
67941;SDS011;54731;42.600;23.476;2023-11-22T04:57:48;23.27;;;12.63;;
67941;SDS011;54731;42.600;23.476;2023-11-22T05:00:14;21.30;;;12.13;;
67941;SDS011;54731;42.600;23.476;2023-11-22T05:02:40;18.00;;;10.73;;
67941;SDS011;54731;42.600;23.476;2023-11-22T05:05:06;17.73;;;10.33;;
67941;SDS011;54731;42.600;23.476;2023-11-22T05:07:32;19.05;;;10.30;;
67941;SDS011;54731;42.600;23.476;2023-11-22T05:09:57;21.43;;;12.30;;
67941;SDS011;54731;42.600;23.476;2023-11-22T05:12:22;20.42;;;9.98;;
67941;SDS011;54731;42.600;23.476;2023-11-22T05:14:48;24.13;;;10.53;;
67941;SDS011;54731;42.600;23.476;2023-11-22T05:17:13;19.20;;;9.83;;
67941;SDS011;54731;42.600;23.476;2023-11-22T05:19:38;17.57;;;10.07;;
67941;SDS011;54731;42.600;23.476;2023-11-22T05:22:04;18.07;;;9.53;;
67941;SDS011;54731;42.600;23.476;2023-11-22T05:24:30;18.38;;;9.57;;
67941;SDS011;54731;42.600;23.476;2023-11-22T05:26:55;30.97;;;14.50;;
67941;SDS011;54731;42.600;23.476;2023-11-22T05:29:20;21.10;;;11.70;;
67941;SDS011;54731;42.600;23.476;2023-11-22T05:31:45;25.57;;;13.10;;
67941;SDS011;54731;42.600;23.476;2023-11-22T05:34:11;33.60;;;17.67;;
67941;SDS011;54731;42.600;23.476;2023-11-22T05:36:36;30.57;;;16.70;;
67941;SDS011;54731;42.600;23.476;2023-11-22T05:39:01;39.22;;;19.08;;
67941;SDS011;54731;42.600;23.476;2023-11-22T05:41:27;38.40;;;19.08;;
67941;SDS011;54731;42.600;23.476;2023-11-22T05:43:52;40.10;;;18.50;;
67941;SDS011;54731;42.600;23.476;2023-11-22T05:46:18;27.40;;;15.30;;
67941;SDS011;54731;42.600;23.476;2023-11-22T05:48:45;30.45;;;15.93;;
67941;SDS011;54731;42.600;23.476;2023-11-22T05:51:10;26.90;;;14.10;;
67941;SDS011;54731;42.600;23.476;2023-11-22T05:53:35;32.70;;;15.17;;
67941;SDS011;54731;42.600;23.476;2023-11-22T05:56:01;25.97;;;14.93;;
67941;SDS011;54731;42.600;23.476;2023-11-22T05:58:26;28.13;;;13.73;;
67941;SDS011;54731;42.600;23.476;2023-11-22T06:00:51;25.73;;;14.27;;
67941;SDS011;54731;42.600;23.476;2023-11-22T06:03:17;23.33;;;12.13;;
67941;SDS011;54731;42.600;23.476;2023-11-22T06:05:42;30.80;;;13.87;;
67941;SDS011;54731;42.600;23.476;2023-11-22T06:08:07;32.43;;;16.07;;
67941;SDS011;54731;42.600;23.476;2023-11-22T06:10:32;43.00;;;22.23;;
67941;SDS011;54731;42.600;23.476;2023-11-22T06:12:58;47.70;;;24.77;;
67941;SDS011;54731;42.600;23.476;2023-11-22T06:15:23;49.33;;;24.07;;
67941;SDS011;54731;42.600;23.476;2023-11-22T06:17:49;53.75;;;25.33;;
67941;SDS011;54731;42.600;23.476;2023-11-22T06:20:14;47.88;;;23.23;;
67941;SDS011;54731;42.600;23.476;2023-11-22T06:22:40;47.45;;;23.85;;
67941;SDS011;54731;42.600;23.476;2023-11-22T06:25:09;38.97;;;18.80;;
67941;SDS011;54731;42.600;23.476;2023-11-22T06:27:34;34.13;;;17.60;;
67941;SDS011;54731;42.600;23.476;2023-11-22T06:29:59;24.23;;;14.03;;
67941;SDS011;54731;42.600;23.476;2023-11-22T06:32:25;27.70;;;15.97;;
67941;SDS011;54731;42.600;23.476;2023-11-22T06:34:50;24.00;;;13.97;;
67941;SDS011;54731;42.600;23.476;2023-11-22T06:37:15;21.20;;;11.67;;
67941;SDS011;54731;42.600;23.476;2023-11-22T06:39:40;20.08;;;11.13;;
67941;SDS011;54731;42.600;23.476;2023-11-22T06:42:06;19.90;;;11.00;;
67941;SDS011;54731;42.600;23.476;2023-11-22T06:44:31;22.03;;;11.83;;
67941;SDS011;54731;42.600;23.476;2023-11-22T06:46:56;19.67;;;10.43;;
67941;SDS011;54731;42.600;23.476;2023-11-22T06:49:22;19.00;;;10.90;;
67941;SDS011;54731;42.600;23.476;2023-11-22T06:51:47;18.47;;;10.83;;
67941;SDS011;54731;42.600;23.476;2023-11-22T06:54:12;16.37;;;10.53;;
67941;SDS011;54731;42.600;23.476;2023-11-22T06:56:38;18.07;;;9.97;;
67941;SDS011;54731;42.600;23.476;2023-11-22T06:59:03;16.27;;;9.85;;
67941;SDS011;54731;42.600;23.476;2023-11-22T07:01:28;17.50;;;11.00;;
67941;SDS011;54731;42.600;23.476;2023-11-22T07:03:53;38.27;;;19.43;;
67941;SDS011;54731;42.600;23.476;2023-11-22T07:06:19;40.70;;;19.77;;
67941;SDS011;54731;42.600;23.476;2023-11-22T07:08:44;46.70;;;23.20;;
67941;SDS011;54731;42.600;23.476;2023-11-22T07:11:10;49.17;;;23.43;;
67941;SDS011;54731;42.600;23.476;2023-11-22T07:13:35;37.83;;;21.40;;
67941;SDS011;54731;42.600;23.476;2023-11-22T07:16:00;41.57;;;21.17;;
67941;SDS011;54731;42.600;23.476;2023-11-22T07:18:25;36.80;;;20.15;;
67941;SDS011;54731;42.600;23.476;2023-11-22T07:20:51;46.70;;;23.47;;
67941;SDS011;54731;42.600;23.476;2023-11-22T07:23:16;51.57;;;26.47;;
67941;SDS011;54731;42.600;23.476;2023-11-22T07:25:41;41.47;;;23.10;;
67941;SDS011;54731;42.600;23.476;2023-11-22T07:28:07;42.27;;;23.17;;
67941;SDS011;54731;42.600;23.476;2023-11-22T07:30:32;43.20;;;24.53;;
67941;SDS011;54731;42.600;23.476;2023-11-22T07:32:57;34.23;;;19.20;;
67941;SDS011;54731;42.600;23.476;2023-11-22T07:35:22;34.87;;;19.17;;
67941;SDS011;54731;42.600;23.476;2023-11-22T07:37:48;37.20;;;20.33;;
67941;SDS011;54731;42.600;23.476;2023-11-22T07:40:13;31.27;;;18.77;;
67941;SDS011;54731;42.600;23.476;2023-11-22T07:42:39;32.85;;;19.15;;
67941;SDS011;54731;42.600;23.476;2023-11-22T07:45:06;95.75;;;66.18;;
67941;SDS011;54731;42.600;23.476;2023-11-22T07:47:32;42.67;;;26.67;;
67941;SDS011;54731;42.600;23.476;2023-11-22T07:49:57;34.73;;;21.77;;
67941;SDS011;54731;42.600;23.476;2023-11-22T07:52:24;50.38;;;28.13;;
67941;SDS011;54731;42.600;23.476;2023-11-22T07:54:49;29.43;;;17.80;;
67941;SDS011;54731;42.600;23.476;2023-11-22T07:57:15;24.67;;;16.03;;
67941;SDS011;54731;42.600;23.476;2023-11-22T07:59:40;28.33;;;17.10;;
67941;SDS011;54731;42.600;23.476;2023-11-22T08:02:06;24.13;;;15.90;;
67941;SDS011;54731;42.600;23.476;2023-11-22T08:04:31;27.88;;;15.00;;
67941;SDS011;54731;42.600;23.476;2023-11-22T08:06:56;29.40;;;17.50;;
67941;SDS011;54731;42.600;23.476;2023-11-22T08:09:22;33.30;;;18.07;;
67941;SDS011;54731;42.600;23.476;2023-11-22T08:11:48;30.50;;;20.50;;
67941;SDS011;54731;42.600;23.476;2023-11-22T08:14:14;39.23;;;25.40;;
67941;SDS011;54731;42.600;23.476;2023-11-22T08:16:40;40.60;;;22.30;;
67941;SDS011;54731;42.600;23.476;2023-11-22T08:19:05;44.23;;;25.47;;
67941;SDS011;54731;42.600;23.476;2023-11-22T08:21:30;46.30;;;25.83;;
67941;SDS011;54731;42.600;23.476;2023-11-22T08:23:56;48.30;;;27.17;;
67941;SDS011;54731;42.600;23.476;2023-11-22T08:26:21;51.63;;;30.80;;
67941;SDS011;54731;42.600;23.476;2023-11-22T08:28:46;60.03;;;36.70;;
67941;SDS011;54731;42.600;23.476;2023-11-22T08:31:12;51.80;;;32.00;;
67941;SDS011;54731;42.600;23.476;2023-11-22T08:33:37;38.17;;;23.93;;
67941;SDS011;54731;42.600;23.476;2023-11-22T08:36:06;38.60;;;23.63;;
67941;SDS011;54731;42.600;23.476;2023-11-22T08:38:33;37.17;;;21.33;;
67941;SDS011;54731;42.600;23.476;2023-11-22T08:41:02;34.28;;;19.70;;
67941;SDS011;54731;42.600;23.476;2023-11-22T08:43:28;38.83;;;21.38;;
67941;SDS011;54731;42.600;23.476;2023-11-22T08:45:54;40.77;;;22.17;;
67941;SDS011;54731;42.600;23.476;2023-11-22T08:48:19;45.73;;;28.63;;
67941;SDS011;54731;42.600;23.476;2023-11-22T08:50:44;47.67;;;26.53;;
67941;SDS011;54731;42.600;23.476;2023-11-22T08:53:10;43.40;;;27.33;;
67941;SDS011;54731;42.600;23.476;2023-11-22T08:55:35;45.07;;;24.70;;
67941;SDS011;54731;42.600;23.476;2023-11-22T08:58:01;44.83;;;24.88;;
67941;SDS011;54731;42.600;23.476;2023-11-22T09:00:26;43.47;;;24.27;;
67941;SDS011;54731;42.600;23.476;2023-11-22T09:02:51;46.03;;;24.90;;
67941;SDS011;54731;42.600;23.476;2023-11-22T09:05:17;39.23;;;21.87;;
67941;SDS011;54731;42.600;23.476;2023-11-22T09:07:42;30.73;;;19.47;;
67941;SDS011;54731;42.600;23.476;2023-11-22T09:10:08;30.48;;;16.67;;
67941;SDS011;54731;42.600;23.476;2023-11-22T09:12:33;31.53;;;16.27;;
67941;SDS011;54731;42.600;23.476;2023-11-22T09:14:59;34.33;;;18.73;;
67941;SDS011;54731;42.600;23.476;2023-11-22T09:17:24;43.23;;;25.67;;
67941;SDS011;54731;42.600;23.476;2023-11-22T09:19:49;50.43;;;30.37;;
67941;SDS011;54731;42.600;23.476;2023-11-22T09:22:15;28.77;;;17.00;;
67941;SDS011;54731;42.600;23.476;2023-11-22T09:24:40;35.30;;;20.93;;
67941;SDS011;54731;42.600;23.476;2023-11-22T09:27:05;29.20;;;18.00;;
67941;SDS011;54731;42.600;23.476;2023-11-22T09:29:31;21.60;;;12.37;;
67941;SDS011;54731;42.600;23.476;2023-11-22T09:31:56;24.38;;;12.25;;
67941;SDS011;54731;42.600;23.476;2023-11-22T09:34:22;21.13;;;12.10;;
67941;SDS011;54731;42.600;23.476;2023-11-22T09:36:47;20.83;;;13.17;;
67941;SDS011;54731;42.600;23.476;2023-11-22T09:39:12;24.33;;;14.77;;
67941;SDS011;54731;42.600;23.476;2023-11-22T09:41:38;30.97;;;17.27;;
67941;SDS011;54731;42.600;23.476;2023-11-22T09:44:03;34.60;;;18.73;;
67941;SDS011;54731;42.600;23.476;2023-11-22T09:46:28;33.60;;;19.17;;
67941;SDS011;54731;42.600;23.476;2023-11-22T09:48:54;33.17;;;18.57;;
67941;SDS011;54731;42.600;23.476;2023-11-22T09:51:21;33.97;;;19.13;;
67941;SDS011;54731;42.600;23.476;2023-11-22T09:53:52;32.30;;;18.10;;
67941;SDS011;54731;42.600;23.476;2023-11-22T09:56:20;30.35;;;17.80;;
67941;SDS011;54731;42.600;23.476;2023-11-22T09:58:46;33.03;;;21.17;;
67941;SDS011;54731;42.600;23.476;2023-11-22T10:01:14;40.63;;;23.58;;
67941;SDS011;54731;42.600;23.476;2023-11-22T10:03:41;36.45;;;20.65;;
67941;SDS011;54731;42.600;23.476;2023-11-22T10:06:07;34.00;;;19.83;;
67941;SDS011;54731;42.600;23.476;2023-11-22T10:08:33;35.27;;;20.60;;
67941;SDS011;54731;42.600;23.476;2023-11-22T10:10:58;80.85;;;39.65;;
67941;SDS011;54731;42.600;23.476;2023-11-22T10:13:24;65.90;;;32.07;;
67941;SDS011;54731;42.600;23.476;2023-11-22T10:15:50;57.75;;;32.53;;
67941;SDS011;54731;42.600;23.476;2023-11-22T10:18:16;43.78;;;26.00;;
67941;SDS011;54731;42.600;23.476;2023-11-22T10:20:41;50.30;;;27.30;;
67941;SDS011;54731;42.600;23.476;2023-11-22T10:23:11;41.85;;;24.17;;
67941;SDS011;54731;42.600;23.476;2023-11-22T10:25:44;42.55;;;24.55;;
67941;SDS011;54731;42.600;23.476;2023-11-22T10:28:09;45.38;;;25.80;;
67941;SDS011;54731;42.600;23.476;2023-11-22T10:30:35;42.03;;;23.77;;
67941;SDS011;54731;42.600;23.476;2023-11-22T10:33:00;32.30;;;19.88;;
67941;SDS011;54731;42.600;23.476;2023-11-22T10:35:25;35.67;;;21.00;;
67941;SDS011;54731;42.600;23.476;2023-11-22T10:37:51;42.50;;;22.37;;
67941;SDS011;54731;42.600;23.476;2023-11-22T10:40:17;39.63;;;22.88;;
67941;SDS011;54731;42.600;23.476;2023-11-22T10:42:43;34.57;;;20.27;;
67941;SDS011;54731;42.600;23.476;2023-11-22T10:45:09;34.03;;;20.20;;
67941;SDS011;54731;42.600;23.476;2023-11-22T10:47:36;40.83;;;22.37;;
67941;SDS011;54731;42.600;23.476;2023-11-22T10:50:02;39.00;;;21.60;;
67941;SDS011;54731;42.600;23.476;2023-11-22T10:52:27;36.90;;;20.53;;
67941;SDS011;54731;42.600;23.476;2023-11-22T10:54:56;35.13;;;20.58;;
67941;SDS011;54731;42.600;23.476;2023-11-22T10:57:26;34.38;;;21.02;;
67941;SDS011;54731;42.600;23.476;2023-11-22T10:59:56;41.50;;;22.75;;
67941;SDS011;54731;42.600;23.476;2023-11-22T11:02:22;38.87;;;22.53;;
67941;SDS011;54731;42.600;23.476;2023-11-22T11:04:51;35.22;;;20.63;;
67941;SDS011;54731;42.600;23.476;2023-11-22T11:07:23;28.58;;;18.88;;
67941;SDS011;54731;42.600;23.476;2023-11-22T11:09:53;32.88;;;19.48;;
67941;SDS011;54731;42.600;23.476;2023-11-22T11:12:20;28.67;;;18.30;;
67941;SDS011;54731;42.600;23.476;2023-11-22T11:14:46;29.52;;;17.90;;
67941;SDS011;54731;42.600;23.476;2023-11-22T11:17:12;26.48;;;17.40;;
67941;SDS011;54731;42.600;23.476;2023-11-22T11:19:38;33.88;;;19.15;;
67941;SDS011;54731;42.600;23.476;2023-11-22T11:22:06;37.43;;;18.87;;
67941;SDS011;54731;42.600;23.476;2023-11-22T11:24:37;33.33;;;19.65;;
67941;SDS011;54731;42.600;23.476;2023-11-22T11:27:03;31.70;;;18.88;;
67941;SDS011;54731;42.600;23.476;2023-11-22T11:29:31;30.37;;;17.60;;
67941;SDS011;54731;42.600;23.476;2023-11-22T11:31:57;30.17;;;17.75;;
67941;SDS011;54731;42.600;23.476;2023-11-22T11:34:23;37.90;;;20.33;;
67941;SDS011;54731;42.600;23.476;2023-11-22T11:36:52;41.70;;;20.13;;
67941;SDS011;54731;42.600;23.476;2023-11-22T11:39:18;40.33;;;22.55;;
67941;SDS011;54731;42.600;23.476;2023-11-22T11:41:50;44.78;;;26.95;;
67941;SDS011;54731;42.600;23.476;2023-11-22T11:44:16;45.00;;;25.37;;
67941;SDS011;54731;42.600;23.476;2023-11-22T11:46:42;41.05;;;26.17;;
67941;SDS011;54731;42.600;23.476;2023-11-22T11:49:11;30.80;;;20.57;;
67941;SDS011;54731;42.600;23.476;2023-11-22T11:51:37;21.38;;;13.27;;
67941;SDS011;54731;42.600;23.476;2023-11-22T11:54:03;31.53;;;18.63;;
67941;SDS011;54731;42.600;23.476;2023-11-22T11:56:28;32.70;;;18.83;;
67941;SDS011;54731;42.600;23.476;2023-11-22T11:58:55;36.20;;;19.47;;
67941;SDS011;54731;42.600;23.476;2023-11-22T12:01:22;34.08;;;21.52;;
67941;SDS011;54731;42.600;23.476;2023-11-22T12:03:47;30.40;;;19.73;;
67941;SDS011;54731;42.600;23.476;2023-11-22T12:06:17;33.47;;;21.80;;
67941;SDS011;54731;42.600;23.476;2023-11-22T12:08:46;32.55;;;21.08;;
67941;SDS011;54731;42.600;23.476;2023-11-22T12:11:11;35.97;;;21.10;;
67941;SDS011;54731;42.600;23.476;2023-11-22T12:13:37;39.33;;;22.03;;
67941;SDS011;54731;42.600;23.476;2023-11-22T12:16:03;30.20;;;18.40;;
67941;SDS011;54731;42.600;23.476;2023-11-22T12:18:29;27.98;;;16.48;;
67941;SDS011;54731;42.600;23.476;2023-11-22T12:20:55;41.03;;;21.20;;
67941;SDS011;54731;42.600;23.476;2023-11-22T12:23:22;35.35;;;21.15;;
67941;SDS011;54731;42.600;23.476;2023-11-22T12:25:52;32.50;;;20.52;;
67941;SDS011;54731;42.600;23.476;2023-11-22T12:28:21;38.20;;;22.65;;
67941;SDS011;54731;42.600;23.476;2023-11-22T12:30:47;39.78;;;24.38;;
67941;SDS011;54731;42.600;23.476;2023-11-22T12:33:13;37.23;;;23.93;;
67941;SDS011;54731;42.600;23.476;2023-11-22T12:35:38;38.70;;;24.53;;
67941;SDS011;54731;42.600;23.476;2023-11-22T12:38:04;37.33;;;22.80;;
67941;SDS011;54731;42.600;23.476;2023-11-22T12:40:31;39.17;;;24.05;;
67941;SDS011;54731;42.600;23.476;2023-11-22T12:42:56;42.78;;;24.42;;
67941;SDS011;54731;42.600;23.476;2023-11-22T12:45:22;41.10;;;23.98;;
67941;SDS011;54731;42.600;23.476;2023-11-22T12:47:49;35.20;;;22.40;;
67941;SDS011;54731;42.600;23.476;2023-11-22T12:53:13;59.58;;;34.63;;
67941;SDS011;54731;42.600;23.476;2023-11-22T12:55:43;84.63;;;50.90;;
67941;SDS011;54731;42.600;23.476;2023-11-22T12:58:09;60.05;;;37.70;;
67941;SDS011;54731;42.600;23.476;2023-11-22T13:00:34;57.63;;;33.17;;
67941;SDS011;54731;42.600;23.476;2023-11-22T13:02:59;49.27;;;29.97;;
67941;SDS011;54731;42.600;23.476;2023-11-22T13:05:25;54.53;;;30.47;;
67941;SDS011;54731;42.600;23.476;2023-11-22T13:07:50;52.17;;;30.03;;
67941;SDS011;54731;42.600;23.476;2023-11-22T13:10:16;48.95;;;27.98;;
67941;SDS011;54731;42.600;23.476;2023-11-22T13:12:42;48.50;;;26.42;;
67941;SDS011;54731;42.600;23.476;2023-11-22T13:15:08;42.90;;;23.20;;
67941;SDS011;54731;42.600;23.476;2023-11-22T13:17:33;35.50;;;22.70;;
67941;SDS011;54731;42.600;23.476;2023-11-22T13:19:59;38.17;;;23.43;;
67941;SDS011;54731;42.600;23.476;2023-11-22T13:22:24;36.30;;;22.67;;
67941;SDS011;54731;42.600;23.476;2023-11-22T13:24:49;36.20;;;21.40;;
67941;SDS011;54731;42.600;23.476;2023-11-22T13:27:14;31.23;;;18.63;;
67941;SDS011;54731;42.600;23.476;2023-11-22T13:29:40;35.33;;;19.90;;
67941;SDS011;54731;42.600;23.476;2023-11-22T13:32:05;34.77;;;21.10;;
67941;SDS011;54731;42.600;23.476;2023-11-22T13:34:30;36.73;;;21.97;;
67941;SDS011;54731;42.600;23.476;2023-11-22T13:36:56;37.73;;;23.77;;
67941;SDS011;54731;42.600;23.476;2023-11-22T13:39:21;43.60;;;25.20;;
67941;SDS011;54731;42.600;23.476;2023-11-22T13:41:46;38.77;;;23.27;;
67941;SDS011;54731;42.600;23.476;2023-11-22T13:44:12;34.25;;;20.52;;
67941;SDS011;54731;42.600;23.476;2023-11-22T13:46:37;30.37;;;19.70;;
67941;SDS011;54731;42.600;23.476;2023-11-22T13:49:02;35.00;;;21.10;;
67941;SDS011;54731;42.600;23.476;2023-11-22T13:51:28;39.40;;;20.77;;
67941;SDS011;54731;42.600;23.476;2023-11-22T13:53:53;33.57;;;19.07;;
67941;SDS011;54731;42.600;23.476;2023-11-22T13:56:18;38.97;;;22.77;;
67941;SDS011;54731;42.600;23.476;2023-11-22T13:58:44;49.28;;;27.95;;
67941;SDS011;54731;42.600;23.476;2023-11-22T14:01:09;48.47;;;27.60;;
67941;SDS011;54731;42.600;23.476;2023-11-22T14:03:34;39.37;;;22.33;;
67941;SDS011;54731;42.600;23.476;2023-11-22T14:06:00;34.57;;;19.57;;
67941;SDS011;54731;42.600;23.476;2023-11-22T14:08:25;32.17;;;17.67;;